Time;durP1;ratioP1;P1;durP2;ratioP2;P2;SDS_P1;SDS_P2;PMS_P1;PMS_P2;Temp;Humidity;BMP_temperature;BMP_pressure;BME280_temperature;BME280_humidity;BME280_pressure;Samples;Min_cycle;Max_cycle;Signal;HPM_P1;HPM_P2
2022/10/19 00:02:03;;;;;;;5.30;4.60;;;;;;;-144.22;100.00;60274.75;6077140;29;20742;-68
2022/10/19 00:05:05;;;;;;;5.83;4.80;;;;;;;-144.22;100.00;60274.75;6078701;29;20243;-68
2022/10/19 00:08:07;;;;;;;5.70;5.00;;;;;;;-144.22;100.00;60274.75;6070842;29;20722;-68
2022/10/19 00:11:11;;;;;;;7.73;4.57;;;;;;;-144.22;100.00;60274.75;6088370;29;20228;-68
2022/10/19 00:14:16;;;;;;;5.83;5.00;;;;;;;-144.22;100.00;60274.75;6071569;29;20227;-67
2022/10/19 00:17:18;;;;;;;6.93;5.20;;;;;;;-144.22;100.00;60274.75;6070825;29;20236;-68
2022/10/19 00:20:20;;;;;;;6.60;5.77;;;;;;;-144.22;100.00;60274.75;6059533;29;20262;-67
2022/10/19 00:23:22;;;;;;;7.57;5.27;;;;;;;-144.22;100.00;60274.75;6084413;29;20232;-68
2022/10/19 00:26:24;;;;;;;8.30;6.20;;;;;;;-144.22;100.00;60274.75;6087126;29;20364;-68
2022/10/19 00:29:26;;;;;;;7.47;6.60;;;;;;;-144.22;100.00;60274.75;6070718;29;20267;-70
2022/10/19 00:32:28;;;;;;;8.30;5.40;;;;;;;-144.22;100.00;60274.75;6087480;29;20232;-69
2022/10/19 00:35:31;;;;;;;9.30;6.47;;;;;;;-144.22;100.00;60274.75;6070316;29;20234;-69
2022/10/19 00:38:33;;;;;;;8.63;6.87;;;;;;;-144.22;100.00;60274.75;6087895;29;20376;-70
2022/10/19 00:41:36;;;;;;;11.30;7.00;;;;;;;-144.22;100.00;60274.75;6089044;29;20236;-69
2022/10/19 00:44:37;;;;;;;7.93;6.43;;;;;;;-144.22;100.00;60274.75;6088231;29;20235;-68
2022/10/19 00:47:41;;;;;;;7.43;6.70;;;;;;;-144.22;100.00;60274.75;6071013;29;20242;-70
2022/10/19 00:50:45;;;;;;;8.50;6.97;;;;;;;-144.22;100.00;60274.75;6087002;29;20247;-68
2022/10/19 00:53:47;;;;;;;9.87;7.23;;;;;;;-144.22;100.00;60274.75;6088233;29;20597;-68
2022/10/19 00:56:52;;;;;;;8.57;6.97;;;;;;;-144.22;100.00;60274.75;6087330;29;20335;-69
2022/10/19 00:59:55;;;;;;;9.43;6.90;;;;;;;-144.22;100.00;60274.75;6069679;29;20618;-69
2022/10/19 01:02:57;;;;;;;9.03;6.83;;;;;;;-144.22;100.00;60274.75;6058872;29;20737;-68
2022/10/19 01:06:00;;;;;;;9.03;6.37;;;;;;;-144.22;100.00;60274.75;6087397;29;20243;-68
2022/10/19 01:09:02;;;;;;;9.03;6.97;;;;;;;-144.22;100.00;60274.75;6086560;29;20684;-68
2022/10/19 01:12:37;;;;;;;8.27;6.40;;;;;;;-144.22;100.00;60274.75;6087225;29;20231;-68
2022/10/19 01:15:58;;;;;;;8.53;6.77;;;;;;;-144.22;100.00;60274.75;6086974;29;20224;-68
2022/10/19 01:19:18;;;;;;;10.00;7.90;;;;;;;-144.22;100.00;60274.75;6064902;29;20240;-69
2022/10/19 01:22:38;;;;;;;7.03;6.20;;;;;;;-144.22;100.00;60274.75;6046488;29;20275;-68
2022/10/19 01:26:14;;;;;;;7.60;6.40;;;;;;;-144.22;100.00;60274.75;6069439;29;20751;-67
2022/10/19 01:29:50;;;;;;;7.80;6.33;;;;;;;-144.22;100.00;60274.75;6086597;29;20224;-68
2022/10/19 01:33:05;;;;;;;7.43;6.23;;;;;;;-144.22;100.00;60274.75;6063094;29;20647;-68
2022/10/19 01:36:27;;;;;;;7.67;6.07;;;;;;;-144.22;100.00;60274.75;6047585;29;20720;-68
2022/10/19 01:39:40;;;;;;;9.13;6.80;;;;;;;-144.22;100.00;60274.75;6063746;29;20236;-68
2022/10/19 01:43:01;;;;;;;7.87;6.10;;;;;;;-144.22;100.00;60274.75;6084239;29;20236;-69
2022/10/19 01:46:13;;;;;;;7.37;6.00;;;;;;;-144.22;100.00;60274.75;6087128;29;20242;-68
2022/10/19 01:49:33;;;;;;;7.20;5.60;;;;;;;-144.22;100.00;60274.75;6085805;29;20235;-68
2022/10/19 01:52:38;;;;;;;6.07;5.27;;;;;;;-144.22;100.00;60274.75;6085724;29;20283;-67
2022/10/19 01:55:43;;;;;;;6.33;5.60;;;;;;;-144.22;100.00;60274.75;6086460;29;20712;-67
2022/10/19 01:58:47;;;;;;;6.93;5.43;;;;;;;-144.22;100.00;60274.75;6069216;29;20255;-68
2022/10/19 02:01:51;;;;;;;7.73;5.30;;;;;;;-144.22;100.00;60274.75;6076705;29;20236;-68
2022/10/19 02:04:56;;;;;;;7.40;5.17;;;;;;;-144.22;100.00;60274.75;6070221;29;20242;-68
2022/10/19 02:08:02;;;;;;;5.70;5.10;;;;;;;-144.22;100.00;60274.75;6086106;29;20228;-68
2022/10/19 02:11:05;;;;;;;6.97;5.40;;;;;;;-144.22;100.00;60274.75;6069444;29;20243;-67
2022/10/19 02:14:12;;;;;;;8.50;5.50;;;;;;;-144.22;100.00;60274.75;6086309;29;20604;-68
2022/10/19 02:17:19;;;;;;;5.60;4.80;;;;;;;-144.22;100.00;60274.75;6085274;29;20326;-69
2022/10/19 02:20:21;;;;;;;6.60;5.47;;;;;;;-144.22;100.00;60274.75;6085378;29;20732;-68
2022/10/19 02:23:25;;;;;;;5.17;4.50;;;;;;;-144.22;100.00;60274.75;6085380;29;20254;-67
2022/10/19 02:26:27;;;;;;;5.03;4.00;;;;;;;-144.22;100.00;60274.75;6084518;29;20236;-68
2022/10/19 02:29:31;;;;;;;5.30;4.53;;;;;;;-144.22;100.00;60274.75;6085387;29;20239;-68
2022/10/19 02:32:34;;;;;;;4.50;3.83;;;;;;;-144.22;100.00;60274.75;6068062;29;20236;-68
2022/10/19 02:35:36;;;;;;;5.60;4.90;;;;;;;-144.22;100.00;60274.75;6085059;29;20275;-68
2022/10/19 02:38:40;;;;;;;5.83;4.67;;;;;;;-144.22;100.00;60274.75;6068669;29;20582;-68
2022/10/19 02:41:49;;;;;;;5.37;4.57;;;;;;;-144.22;100.00;60274.75;6084150;29;20253;-69
2022/10/19 02:45:06;;;;;;;5.17;4.20;;;;;;;-144.22;100.00;60274.75;6084802;29;20258;-67
2022/10/19 02:48:17;;;;;;;4.97;3.90;;;;;;;-144.22;100.00;60274.75;6068530;29;20237;-68
2022/10/19 02:51:53;;;;;;;4.23;3.83;;;;;;;-144.22;100.00;60274.75;6085308;29;20239;-68
2022/10/19 02:54:55;;;;;;;5.67;4.17;;;;;;;-144.22;100.00;60274.75;6068450;29;20244;-68
2022/10/19 02:57:57;;;;;;;4.30;3.90;;;;;;;-144.22;100.00;60274.75;6085170;29;20239;-68
2022/10/19 03:00:59;;;;;;;6.20;3.90;;;;;;;-144.22;100.00;60274.75;6068702;29;20225;-67
2022/10/19 03:04:01;;;;;;;3.83;3.50;;;;;;;-144.22;100.00;60274.75;6077399;29;20275;-69
2022/10/19 03:07:03;;;;;;;5.70;3.80;;;;;;;-144.22;100.00;60274.75;6072750;29;20708;-68
2022/10/19 03:10:06;;;;;;;5.50;2.90;;;;;;;-144.22;100.00;60274.75;6088548;29;20591;-68
2022/10/19 03:13:08;;;;;;;3.53;3.23;;;;;;;-144.22;100.00;60274.75;6072213;29;20227;-68
2022/10/19 03:16:12;;;;;;;6.57;3.23;;;;;;;-144.22;100.00;60274.75;6089257;29;20704;-68
2022/10/19 03:19:14;;;;;;;5.07;3.70;;;;;;;-144.22;100.00;60274.75;6088462;29;20240;-68
2022/10/19 03:22:16;;;;;;;7.63;3.43;;;;;;;-144.22;100.00;60274.75;6089716;29;20236;-68
2022/10/19 03:25:18;;;;;;;5.40;3.80;;;;;;;-144.22;100.00;60274.75;6088034;29;20235;-68
2022/10/19 03:28:20;;;;;;;6.47;3.87;;;;;;;-144.22;100.00;60274.75;6089845;29;20236;-68
2022/10/19 03:31:22;;;;;;;6.13;3.37;;;;;;;-144.22;100.00;60274.75;6088092;29;20571;-68
2022/10/19 03:34:24;;;;;;;6.00;3.57;;;;;;;-144.22;100.00;60274.75;6089251;29;20239;-68
2022/10/19 03:37:26;;;;;;;6.93;4.10;;;;;;;-144.22;100.00;60274.75;6072353;29;20704;-68
2022/10/19 03:40:28;;;;;;;4.90;3.43;;;;;;;-144.22;100.00;60274.75;6089972;29;20715;-69
2022/10/19 03:43:30;;;;;;;4.13;3.60;;;;;;;-144.22;100.00;60274.75;6089004;29;20628;-70
2022/10/19 03:46:32;;;;;;;7.13;3.30;;;;;;;-144.22;100.00;60274.75;6071626;29;20243;-69
2022/10/19 03:49:34;;;;;;;5.93;3.77;;;;;;;-144.22;100.00;60274.75;6088289;29;20742;-68
2022/10/19 03:52:41;;;;;;;8.67;3.93;;;;;;;-144.22;100.00;60274.75;6089278;29;20248;-68
2022/10/19 03:55:42;;;;;;;8.20;4.10;;;;;;;-144.22;100.00;60274.75;6063081;29;20243;-68
2022/10/19 03:58:46;;;;;;;7.80;3.87;;;;;;;-144.22;100.00;60274.75;6063954;29;20755;-68
2022/10/19 04:01:48;;;;;;;4.17;3.57;;;;;;;-144.22;100.00;60274.75;6063899;29;20229;-68
2022/10/19 04:04:50;;;;;;;6.43;4.40;;;;;;;-144.22;100.00;60274.75;6065838;29;20244;-68
2022/10/19 04:07:52;;;;;;;5.10;4.20;;;;;;;-144.22;100.00;60274.75;6066878;29;20236;-69
2022/10/19 04:11:05;;;;;;;4.40;3.83;;;;;;;-144.22;100.00;60274.75;6062659;29;20238;-69
2022/10/19 04:14:09;;;;;;;6.13;3.53;;;;;;;-144.22;100.00;60274.75;6064208;29;20317;-68
2022/10/19 04:17:11;;;;;;;5.93;4.30;;;;;;;-144.22;100.00;60274.75;6065505;29;20242;-68
2022/10/19 04:20:13;;;;;;;4.67;3.93;;;;;;;-144.22;100.00;60274.75;6065311;29;20242;-68
2022/10/19 04:23:15;;;;;;;9.03;4.83;;;;;;;-144.22;100.00;60274.75;6080512;29;20236;-68
2022/10/19 04:26:19;;;;;;;7.90;4.23;;;;;;;-144.22;100.00;60274.75;6064296;29;20238;-68
2022/10/19 04:29:23;;;;;;;10.30;4.17;;;;;;;-144.22;100.00;60274.75;6065182;29;20236;-68
2022/10/19 04:32:30;;;;;;;7.77;4.33;;;;;;;-144.22;100.00;60274.75;6064240;29;20312;-69
2022/10/19 04:35:32;;;;;;;17.87;4.60;;;;;;;-144.22;100.00;60274.75;6066022;29;20242;-68
2022/10/19 04:38:34;;;;;;;7.37;4.87;;;;;;;-144.22;100.00;60274.75;6063653;29;20247;-68
2022/10/19 04:41:37;;;;;;;8.07;4.60;;;;;;;-144.22;100.00;60274.75;6064894;29;20578;-69
2022/10/19 04:44:39;;;;;;;5.77;4.37;;;;;;;-144.22;100.00;60274.75;6064859;29;20626;-68
2022/10/19 04:47:41;;;;;;;6.00;4.20;;;;;;;-144.22;100.00;60274.75;6065004;29;20244;-68
2022/10/19 04:50:43;;;;;;;10.43;4.70;;;;;;;-144.22;100.00;60274.75;6063472;29;20244;-67
2022/10/19 04:53:55;;;;;;;9.23;4.50;;;;;;;-144.22;100.00;60274.75;6062780;29;20746;-68
2022/10/19 04:57:00;;;;;;;12.67;4.40;;;;;;;-144.22;100.00;60274.75;6087303;29;20243;-69
2022/10/19 05:00:03;;;;;;;6.03;4.40;;;;;;;-144.22;100.00;60274.75;6070057;29;20236;-67
2022/10/19 05:03:05;;;;;;;5.70;4.00;;;;;;;-144.22;100.00;60274.75;6067501;29;20224;-69
2022/10/19 05:06:08;;;;;;;7.93;4.83;;;;;;;-144.22;100.00;60274.75;6070283;29;20239;-68
2022/10/19 05:09:10;;;;;;;10.57;4.00;;;;;;;-144.22;100.00;60274.75;6086843;29;20234;-69
2022/10/19 05:12:12;;;;;;;8.17;4.07;;;;;;;-144.22;100.00;60274.75;6087290;29;20724;-68
2022/10/19 05:15:14;;;;;;;5.20;4.13;;;;;;;-144.22;100.00;60274.75;6055170;29;20249;-68
2022/10/19 05:18:16;;;;;;;7.07;4.07;;;;;;;-144.22;100.00;60274.75;6078139;29;20690;-68
2022/10/19 05:21:20;;;;;;;8.77;4.40;;;;;;;-144.22;100.00;60274.75;6060535;29;20332;-68
2022/10/19 05:24:22;;;;;;;10.47;4.47;;;;;;;-144.22;100.00;60274.75;6087085;29;20243;-68
2022/10/19 05:27:24;;;;;;;6.67;4.10;;;;;;;-144.22;100.00;60274.75;6086431;29;20718;-68
2022/10/19 05:30:26;;;;;;;5.77;4.63;;;;;;;-144.22;100.00;60274.75;6069803;29;20234;-68
2022/10/19 05:33:28;;;;;;;9.27;4.27;;;;;;;-144.22;100.00;60274.75;6085666;29;20234;-68
2022/10/19 05:36:33;;;;;;;7.90;4.27;;;;;;;-144.22;100.00;60274.75;6085577;29;20233;-71
2022/10/19 05:39:35;;;;;;;5.53;3.83;;;;;;;-144.22;100.00;60274.75;6086346;29;20235;-68
2022/10/19 05:42:37;;;;;;;7.80;4.60;;;;;;;-144.22;100.00;60274.75;6086003;29;20234;-68
2022/10/19 05:45:39;;;;;;;8.43;3.70;;;;;;;-144.22;100.00;60274.75;6085746;29;20231;-68
2022/10/19 05:48:41;;;;;;;5.03;4.03;;;;;;;-144.22;100.00;60274.75;6085829;29;20759;-68
2022/10/19 05:51:44;;;;;;;7.00;4.57;;;;;;;-144.22;100.00;60274.75;6069435;29;20738;-69
2022/10/19 05:54:46;;;;;;;5.80;4.57;;;;;;;-144.22;100.00;60274.75;6068126;29;20220;-68
2022/10/19 05:57:48;;;;;;;6.57;4.10;;;;;;;-144.22;100.00;60274.75;6085834;29;20257;-68
2022/10/19 06:00:52;;;;;;;6.47;3.93;;;;;;;-144.22;100.00;60274.75;6084150;29;20726;-69
2022/10/19 06:03:56;;;;;;;5.10;4.60;;;;;;;-144.22;100.00;60274.75;6079237;29;20780;-69
2022/10/19 06:06:59;;;;;;;5.73;4.53;;;;;;;-144.22;100.00;60274.75;6067963;29;20249;-68
2022/10/19 06:10:01;;;;;;;6.87;4.00;;;;;;;-144.22;100.00;60274.75;6086531;29;20245;-68
2022/10/19 06:13:03;;;;;;;4.53;4.07;;;;;;;-144.22;100.00;60274.75;6085741;29;20587;-68
2022/10/19 06:16:07;;;;;;;4.70;4.20;;;;;;;-144.22;100.00;60274.75;6081704;29;20230;-68
2022/10/19 06:19:09;;;;;;;5.63;4.50;;;;;;;-144.22;100.00;60274.75;6063055;29;20609;-68
2022/10/19 06:22:11;;;;;;;7.47;4.47;;;;;;;-144.22;100.00;60274.75;6069316;29;20241;-69
2022/10/19 06:25:13;;;;;;;9.07;4.00;;;;;;;-144.22;100.00;60274.75;6085236;29;20602;-71
2022/10/19 06:28:21;;;;;;;4.90;3.60;;;;;;;-144.22;100.00;60274.75;6085649;29;20273;-69
2022/10/19 06:31:23;;;;;;;6.17;3.73;;;;;;;-144.22;100.00;60274.75;6085590;29;20242;-71
2022/10/19 06:34:25;;;;;;;6.17;3.80;;;;;;;-144.22;100.00;60274.75;6090766;29;20253;-69
2022/10/19 06:37:27;;;;;;;5.77;4.40;;;;;;;-144.22;100.00;60274.75;6090696;29;20323;-68
2022/10/19 06:40:29;;;;;;;6.77;4.53;;;;;;;-144.22;100.00;60274.75;6089968;29;20572;-69
2022/10/19 06:43:31;;;;;;;6.87;4.47;;;;;;;-144.22;100.00;60274.75;6091377;29;20224;-69
2022/10/19 06:46:33;;;;;;;7.53;4.20;;;;;;;-144.22;100.00;60274.75;6073008;29;20237;-70
2022/10/19 06:49:36;;;;;;;8.33;4.40;;;;;;;-144.22;100.00;60274.75;6073187;29;20234;-68
2022/10/19 06:52:39;;;;;;;4.40;3.87;;;;;;;-144.22;100.00;60274.75;6088923;29;20246;-71
2022/10/19 06:55:41;;;;;;;6.20;4.73;;;;;;;-144.22;100.00;60274.75;6088794;29;20243;-68
2022/10/19 06:58:44;;;;;;;4.70;4.00;;;;;;;-144.22;100.00;60274.75;6088914;29;20710;-69
2022/10/19 07:01:46;;;;;;;5.43;4.47;;;;;;;-144.22;100.00;60274.75;6080650;29;20231;-69
2022/10/19 07:04:48;;;;;;;5.53;4.47;;;;;;;-144.22;100.00;60274.75;6075231;29;20630;-68
2022/10/19 07:07:50;;;;;;;5.53;4.30;;;;;;;-144.22;100.00;60274.75;6072401;29;20722;-68
2022/10/19 07:10:58;;;;;;;4.40;4.00;;;;;;;-144.22;100.00;60274.75;6089601;29;20247;-68
2022/10/19 07:14:00;;;;;;;7.50;3.73;;;;;;;-144.22;100.00;60274.75;6089240;29;20314;-70
2022/10/19 07:17:02;;;;;;;7.20;4.50;;;;;;;-144.22;100.00;60274.75;6089136;29;20609;-67
2022/10/19 07:20:04;;;;;;;4.60;3.97;;;;;;;-144.22;100.00;60274.75;6088148;29;20239;-69
2022/10/19 07:23:07;;;;;;;9.23;4.13;;;;;;;-144.22;100.00;60274.75;6088425;29;20720;-68
2022/10/19 07:26:16;;;;;;;5.03;4.23;;;;;;;-144.22;100.00;60274.75;6088929;29;20269;-68
2022/10/19 07:29:18;;;;;;;6.60;4.00;;;;;;;-144.22;100.00;60274.75;6089287;29;20235;-68
2022/10/19 07:32:20;;;;;;;5.53;4.00;;;;;;;-144.22;100.00;60274.75;6072397;29;20721;-68
2022/10/19 07:35:21;;;;;;;4.83;4.03;;;;;;;-144.22;100.00;60274.75;6088216;29;20224;-68
2022/10/19 07:38:23;;;;;;;4.83;4.33;;;;;;;-144.22;100.00;60274.75;6088557;29;20661;-68
2022/10/19 07:41:26;;;;;;;4.70;4.17;;;;;;;-144.22;100.00;60274.75;6088777;29;20227;-68
2022/10/19 07:44:28;;;;;;;5.20;4.20;;;;;;;-144.22;100.00;60274.75;6088010;29;20242;-68
2022/10/19 07:47:30;;;;;;;4.93;3.60;;;;;;;-144.22;100.00;60274.75;6088318;29;20246;-68
2022/10/19 07:50:32;;;;;;;7.00;4.83;;;;;;;-144.22;100.00;60274.75;6087824;29;20239;-68
2022/10/19 07:53:35;;;;;;;4.63;4.10;;;;;;;-144.22;100.00;60274.75;6088398;29;20319;-69
2022/10/19 07:56:37;;;;;;;5.03;3.20;;;;;;;-144.22;100.00;60274.75;6086870;29;20614;-68
2022/10/19 07:59:39;;;;;;;3.97;3.40;;;;;;;-144.22;100.00;60274.75;6088130;29;20247;-68
2022/10/19 08:02:42;;;;;;;4.57;3.73;;;;;;;-144.22;100.00;60274.75;6056742;29;20728;-68
2022/10/19 08:06:08;;;;;;;3.40;3.10;;;;;;;-144.22;100.00;60274.75;6088159;29;20246;-68
2022/10/19 08:09:10;;;;;;;3.13;2.63;;;;;;;-144.22;100.00;60274.75;6089068;29;20216;-68
2022/10/19 08:12:35;;;;;;;3.10;2.80;;;;;;;-144.22;100.00;60274.75;6087105;29;20261;-68
2022/10/19 08:15:37;;;;;;;3.30;2.67;;;;;;;-144.22;100.00;60274.75;6089979;29;20256;-68
2022/10/19 08:18:40;;;;;;;3.83;2.80;;;;;;;-144.22;100.00;60274.75;6083752;29;20235;-68
2022/10/19 08:21:44;;;;;;;3.43;2.73;;;;;;;-144.22;100.00;60274.75;6088793;29;20603;-68
2022/10/19 08:24:47;;;;;;;3.60;2.57;;;;;;;-144.22;100.00;60274.75;6088012;29;20425;-68
2022/10/19 08:27:49;;;;;;;3.13;2.80;;;;;;;-144.22;100.00;60274.75;6086971;29;20247;-69
2022/10/19 08:30:56;;;;;;;5.57;2.73;;;;;;;-144.22;100.00;60274.75;6086742;29;20251;-68
2022/10/19 08:33:59;;;;;;;2.60;2.00;;;;;;;-144.22;100.00;60274.75;6087250;29;20583;-68
2022/10/19 08:37:02;;;;;;;2.87;2.43;;;;;;;-144.22;100.00;60274.75;6071545;29;20235;-67
2022/10/19 08:40:27;;;;;;;2.60;2.37;;;;;;;-144.22;100.00;60274.75;6088025;29;20359;-69
2022/10/19 08:43:35;;;;;;;2.50;2.30;;;;;;;-144.22;100.00;60274.75;6087207;29;20661;-68
2022/10/19 08:47:05;;;;;;;2.47;1.90;;;;;;;-144.22;100.00;60274.75;6091869;29;20244;-69
2022/10/19 08:50:37;;;;;;;6.67;2.20;;;;;;;-144.22;100.00;60274.75;6086319;29;20232;-68
2022/10/19 08:53:44;;;;;;;3.53;2.17;;;;;;;-144.22;100.00;60274.75;6068266;29;20597;-68
2022/10/19 08:57:14;;;;;;;2.70;1.63;;;;;;;-144.22;100.00;60274.75;6086031;29;20243;-68
2022/10/19 09:00:31;;;;;;;4.10;1.90;;;;;;;-144.22;100.00;60274.75;6086646;29;20596;-68
2022/10/19 09:03:54;;;;;;;3.63;1.70;;;;;;;-144.22;100.00;60274.75;6083944;29;20237;-68
2022/10/19 09:07:15;;;;;;;1.90;1.80;;;;;;;-144.22;100.00;60274.75;6070706;29;20251;-68
2022/10/19 09:10:24;;;;;;;3.37;1.60;;;;;;;-144.22;100.00;60274.75;6086995;29;20236;-68
2022/10/19 09:13:42;;;;;;;2.37;1.63;;;;;;;27.65;100.00;60274.75;6070215;29;20244;-68
2022/10/19 09:17:15;;;;;;;1.83;1.73;;;;;;;-144.22;100.00;60274.75;6086016;29;20253;-67
2022/10/19 09:20:26;;;;;;;2.47;2.13;;;;;;;-144.22;100.00;60274.75;6085434;29;20239;-69
2022/10/19 09:23:38;;;;;;;2.50;2.10;;;;;;;-144.22;100.00;60274.75;6085862;29;20232;-67
2022/10/19 09:26:50;;;;;;;2.17;1.77;;;;;;;-144.22;100.00;60274.75;6087146;29;20228;-67
2022/10/19 09:29:56;;;;;;;2.27;2.00;;;;;;;-144.22;100.00;60274.75;6085627;29;20239;-68
2022/10/19 09:33:00;;;;;;;3.27;1.73;;;;;;;-144.22;100.00;60274.75;6086217;29;20279;-68
2022/10/19 09:36:05;;;;;;;1.43;1.33;;;;;;;-144.22;100.00;60274.75;6068687;29;20509;-69
2022/10/19 09:39:11;;;;;;;2.43;1.40;;;;;;;-144.22;100.00;60274.75;6069252;29;20253;-69
2022/10/19 09:42:16;;;;;;;2.60;1.20;;;;;;;-144.22;100.00;60274.75;6084877;29;20274;-68
2022/10/19 09:45:31;;;;;;;1.63;1.50;;;;;;;-144.22;100.00;60274.75;6087791;29;20216;-68
2022/10/19 09:49:00;;;;;;;1.80;1.70;;;;;;;16.83;100.00;60274.75;6086352;29;20228;-67
2022/10/19 09:52:02;;;;;;;1.37;1.27;;;;;;;-144.22;100.00;60274.75;6084065;29;20708;-68
2022/10/19 09:55:18;;;;;;;3.00;1.60;;;;;;;17.85;100.00;60274.75;6084730;29;20239;-68
2022/10/19 09:58:25;;;;;;;1.37;1.27;;;;;;;-144.22;100.00;60274.75;6073661;29;20236;-67
2022/10/19 10:01:36;;;;;;;2.30;1.73;;;;;;;-144.22;100.00;60274.75;6061707;29;20239;-68
2022/10/19 10:05:05;;;;;;;1.60;1.50;;;;;;;18.52;100.00;60274.75;6076522;29;20232;-69
2022/10/19 10:08:16;;;;;;;2.63;1.80;;;;;;;-144.22;100.00;60274.75;6085329;29;20243;-69
2022/10/19 10:11:33;;;;;;;1.57;1.47;;;;;;;-144.22;100.00;60274.75;6068599;29;20224;-68
2022/10/19 10:14:38;;;;;;;2.67;1.73;;;;;;;-144.22;100.00;60274.75;6069087;29;20232;-67
2022/10/19 10:17:46;;;;;;;2.83;1.80;;;;;;;-144.22;100.00;60274.75;6077810;29;20595;-68
2022/10/19 10:21:09;;;;;;;1.93;1.80;;;;;;;-144.22;100.00;60274.75;6075904;29;20274;-67
2022/10/19 10:24:17;;;;;;;2.23;1.83;;;;;;;-144.22;100.00;60274.75;6069238;29;20364;-68
2022/10/19 10:27:33;;;;;;;2.97;1.90;;;;;;;-144.22;100.00;60274.75;6085254;29;20263;-68
2022/10/19 10:30:36;;;;;;;2.80;1.63;;;;;;;-144.22;100.00;60274.75;6084770;29;20230;-68
2022/10/19 10:33:38;;;;;;;1.80;1.60;;;;;;;-144.22;100.00;60274.75;6085265;29;20246;-68
2022/10/19 10:36:49;;;;;;;2.43;1.70;;;;;;;-144.22;100.00;60274.75;6084706;29;20235;-68
2022/10/19 10:39:56;;;;;;;2.17;1.43;;;;;;;-144.22;100.00;60274.75;6068129;29;20566;-68
2022/10/19 10:43:11;;;;;;;4.80;1.90;;;;;;;-144.22;100.00;60274.75;6085214;29;20251;-68
2022/10/19 10:46:19;;;;;;;1.50;1.40;;;;;;;-144.22;100.00;60274.75;6084435;29;20248;-68
2022/10/19 10:49:35;;;;;;;2.23;1.73;;;;;;;-144.22;100.00;60274.75;6085828;29;20236;-69
2022/10/19 10:52:37;;;;;;;4.70;2.13;;;;;;;-144.22;100.00;60274.75;6083508;29;20739;-68
2022/10/19 10:55:39;;;;;;;2.13;1.80;;;;;;;-144.22;100.00;60274.75;6085214;29;20254;-68
2022/10/19 10:58:49;;;;;;;3.47;2.10;;;;;;;-144.22;100.00;60274.75;6068621;29;20236;-68
2022/10/19 11:02:02;;;;;;;3.00;1.80;;;;;;;-144.22;100.00;60274.75;6079363;29;20239;-68
2022/10/19 11:05:12;;;;;;;3.80;2.40;;;;;;;19.15;100.00;60274.75;6067794;29;20240;-68
2022/10/19 11:08:20;;;;;;;2.20;2.00;;;;;;;-144.22;100.00;60274.75;6084218;29;20734;-67
2022/10/19 11:11:38;;;;;;;3.30;1.87;;;;;;;-144.22;100.00;60274.75;6085330;29;20252;-69
2022/10/19 11:15:00;;;;;;;3.00;2.00;;;;;;;-144.22;100.00;60274.75;6084945;29;20238;-69
2022/10/19 11:18:04;;;;;;;2.83;1.90;;;;;;;-144.22;100.00;60274.75;6067030;29;20236;-68
2022/10/19 11:21:21;;;;;;;2.93;1.67;;;;;;;20.15;100.00;60274.75;6093797;29;20220;-68
2022/10/19 11:24:42;;;;;;;2.17;1.93;;;;;;;-144.22;100.00;60274.75;6088877;29;20258;-68
2022/10/19 11:28:10;;;;;;;1.83;1.70;;;;;;;-144.22;100.00;60274.75;6071943;29;20244;-68
2022/10/19 11:31:39;;;;;;;2.63;1.80;;;;;;;-144.22;100.00;60274.75;6075105;29;20240;-69
2022/10/19 11:35:02;;;;;;;2.80;2.17;;;;;;;-144.22;100.00;60274.75;6088888;29;20231;-68
2022/10/19 11:38:26;;;;;;;3.30;2.20;;;;;;;-144.22;100.00;60274.75;6071927;29;20720;-68
2022/10/19 11:42:07;;;;;;;2.20;1.70;;;;;;;-144.22;100.00;60274.75;6088651;29;20738;-69
2022/10/19 11:45:28;;;;;;;1.60;1.50;;;;;;;19.15;100.00;60274.75;6070820;29;20236;-68
2022/10/19 11:48:56;;;;;;;2.00;1.70;;;;;;;-144.22;100.00;60274.75;6088558;29;20244;-69
2022/10/19 11:52:47;;;;;;;2.73;2.00;;;;;;;-144.22;100.00;60274.75;6088232;29;20236;-68
2022/10/19 11:56:27;;;;;;;2.53;1.90;;;;;;;188.01;100.00;60274.75;6020571;29;20256;-68
2022/10/19 12:00:00;;;;;;;1.83;1.73;;;;;;;-144.22;100.00;60274.75;6062211;29;20236;-68
2022/10/19 12:03:43;;;;;;;2.40;1.93;;;;;;;-144.22;100.00;60274.75;6084727;29;20747;-68
2022/10/19 12:06:57;;;;;;;1.77;1.60;;;;;;;20.74;100.00;80537.03;6065177;29;20240;-68
2022/10/19 12:10:25;;;;;;;2.10;1.90;;;;;;;-144.22;100.00;60274.75;6065265;29;20596;-68
2022/10/19 12:13:43;;;;;;;3.93;1.60;;;;;;;21.74;100.00;60274.75;6063565;29;20240;-67
2022/10/19 12:16:50;;;;;;;1.70;1.60;;;;;;;-144.22;100.00;60274.75;6064165;29;20240;-68
2022/10/19 12:19:57;;;;;;;2.20;2.00;;;;;;;21.74;100.00;60274.75;6087115;29;20235;-68
2022/10/19 12:23:05;;;;;;;1.77;1.60;;;;;;;-144.22;100.00;60274.75;6087896;29;20232;-68
2022/10/19 12:26:10;;;;;;;2.20;1.80;;;;;;;-144.22;100.00;60274.75;6088729;29;20802;-69
2022/10/19 12:29:18;;;;;;;1.90;1.63;;;;;;;-144.22;100.00;60274.75;6070812;29;20695;-67
2022/10/19 12:32:22;;;;;;;2.67;1.40;;;;;;;-144.22;100.00;60274.75;6084975;29;20232;-68
2022/10/19 12:35:47;;;;;;;1.60;1.50;;;;;;;-144.22;100.00;60274.75;6087040;29;20248;-68
2022/10/19 12:39:19;;;;;;;1.63;1.53;;;;;;;63.28;100.00;60274.75;6087564;29;20238;-68
2022/10/19 12:42:35;;;;;;;1.80;1.70;;;;;;;-144.22;100.00;60274.75;6086254;29;20232;-69
2022/10/19 12:45:43;;;;;;;1.87;1.77;;;;;;;-144.22;100.00;60274.75;6088328;29;20723;-68
2022/10/19 12:49:05;;;;;;;4.00;1.97;;;;;;;-144.22;100.00;60274.75;6087196;29;20792;-67
2022/10/19 12:52:08;;;;;;;1.83;1.70;;;;;;;188.01;100.00;60274.75;6086802;29;20231;-69
2022/10/19 12:55:33;;;;;;;2.30;1.80;;;;;;;-144.22;100.00;60274.75;6087135;29;20240;-68
2022/10/19 12:58:43;;;;;;;2.27;2.00;;;;;;;-144.22;100.00;60274.75;6086516;29;20708;-69
2022/10/19 13:01:51;;;;;;;2.63;1.80;;;;;;;-144.22;100.00;60274.75;6069926;29;20742;-68
2022/10/19 13:04:53;;;;;;;2.10;1.90;;;;;;;-144.22;100.00;60274.75;6085702;29;20601;-69
2022/10/19 13:07:55;;;;;;;1.53;1.43;;;;;;;-144.22;100.00;60274.75;6067854;29;20232;-69
2022/10/19 13:11:08;;;;;;;1.50;1.40;;;;;;;-144.22;100.00;60274.75;6087252;29;20228;-70
2022/10/19 13:14:10;;;;;;;3.23;1.97;;;;;;;-144.22;100.00;60274.75;6089633;29;20655;-69
2022/10/19 13:17:36;;;;;;;2.47;1.80;;;;;;;29.21;100.00;60274.75;6090060;29;20711;-68
2022/10/19 13:20:38;;;;;;;1.83;1.73;;;;;;;-144.22;100.00;60274.75;6069509;29;20259;-68
2022/10/19 13:23:45;;;;;;;1.80;1.70;;;;;;;-144.22;100.00;60274.75;6086653;29;20314;-68
2022/10/19 13:27:07;;;;;;;1.47;1.37;;;;;;;-144.22;100.00;60274.75;6069790;29;20236;-69
2022/10/19 13:30:34;;;;;;;1.80;1.70;;;;;;;30.83;100.00;60274.75;6086308;29;20224;-69
2022/10/19 13:33:44;;;;;;;1.83;1.50;;;;;;;-144.22;100.00;60274.75;6086850;29;20257;-69
2022/10/19 13:37:02;;;;;;;2.07;1.77;;;;;;;-144.22;100.00;60274.75;6085682;29;20236;-68
2022/10/19 13:40:18;;;;;;;1.90;1.80;;;;;;;21.34;100.00;60274.75;6087142;29;20244;-69
2022/10/19 13:43:33;;;;;;;2.90;1.87;;;;;;;20.29;42.41;98370.00;6090034;29;20712;-68
2022/10/19 13:46:47;;;;;;;1.97;1.87;;;;;;;19.59;44.09;98366.03;6068734;29;20611;-68
2022/10/19 13:49:55;;;;;;;3.40;2.47;;;;;;;18.74;45.75;98365.97;6085383;29;20243;-67
2022/10/19 13:53:16;;;;;;;2.63;2.10;;;;;;;18.44;46.81;98366.41;6085157;29;20704;-68
2022/10/19 13:56:34;;;;;;;2.53;2.17;;;;;;;18.61;47.47;98380.75;6085007;29;20722;-68
2022/10/19 13:59:41;;;;;;;2.30;2.10;;;;;;;18.46;47.26;98371.59;6071046;29;20240;-68
2022/10/19 14:02:55;;;;;;;2.27;2.07;;;;;;;18.27;47.49;98370.75;6063180;29;20605;-68
2022/10/19 14:06:06;;;;;;;2.67;2.33;;;;;;;18.24;47.56;98373.75;6078355;29;20239;-68
2022/10/19 14:09:17;;;;;;;2.83;2.20;;;;;;;18.27;47.98;98370.75;6085253;29;20244;-68
2022/10/19 14:12:25;;;;;;;2.60;2.07;;;;;;;18.01;48.60;98360.03;6086331;29;20232;-68
2022/10/19 14:15:30;;;;;;;2.63;2.43;;;;;;;17.94;49.21;98366.97;6085337;29;20231;-68
2022/10/19 14:18:35;;;;;;;4.77;2.60;;;;;;;17.70;50.06;98374.75;6068861;29;20224;-68
2022/10/19 14:21:37;;;;;;;3.40;3.10;;;;;;;17.36;52.10;98379.84;6068528;29;20223;-67